Time;durP1;ratioP1;P1;durP2;ratioP2;P2;SDS_P1;SDS_P2;PMS_P1;PMS_P2;Temp;Humidity;BMP_temperature;BMP_pressure;BME280_temperature;BME280_humidity;BME280_pressure;Samples;Min_cycle;Max_cycle;Signal;HPM_P1;HPM_P2
2022/11/24 00:00:09;;;;;;;9.40;4.90;;;5.90;99.90;;;;;;5165619;28;20097;-73
2022/11/24 00:02:41;;;;;;;9.00;5.63;;;5.90;99.90;;;;;;5176703;28;20046;-73
2022/11/24 00:05:15;;;;;;;8.43;5.00;;;5.90;99.90;;;;;;5162476;28;20069;-74
2022/11/24 00:07:46;;;;;;;7.78;4.63;;;5.90;99.90;;;;;;5173598;28;20026;-74
2022/11/24 00:10:20;;;;;;;9.77;3.90;;;5.90;99.90;;;;;;5174563;28;20042;-74
2022/11/24 00:12:57;;;;;;;7.55;4.10;;;6.00;99.90;;;;;;5152524;28;20038;-74
2022/11/24 00:15:28;;;;;;;6.72;4.40;;;6.00;99.90;;;;;;5136167;28;20026;-73
2022/11/24 00:18:01;;;;;;;8.13;5.13;;;6.00;99.90;;;;;;5173881;28;20026;-74
2022/11/24 00:20:34;;;;;;;7.45;4.40;;;6.00;99.90;;;;;;5150734;28;20049;-75
2022/11/24 00:23:08;;;;;;;11.85;5.13;;;6.00;99.90;;;;;;5154537;28;20335;-73
2022/11/24 00:25:39;;;;;;;8.43;4.78;;;6.00;99.90;;;;;;5156117;28;20026;-73
2022/11/24 00:28:10;;;;;;;6.53;4.57;;;6.00;99.90;;;;;;5156168;28;20030;-73
2022/11/24 00:30:42;;;;;;;7.88;4.32;;;6.00;99.90;;;;;;5171268;28;20037;-74
2022/11/24 00:33:22;;;;;;;6.63;4.78;;;6.00;99.90;;;;;;5160350;28;20023;-75
2022/11/24 00:36:04;;;;;;;7.13;4.75;;;6.00;99.90;;;;;;5173098;28;20026;-75
2022/11/24 00:38:35;;;;;;;8.48;4.60;;;6.00;99.90;;;;;;5146779;28;20046;-74
2022/11/24 00:41:11;;;;;;;9.35;5.07;;;6.00;99.90;;;;;;5151763;28;20537;-75
2022/11/24 00:43:43;;;;;;;6.35;4.57;;;6.00;99.90;;;;;;5136053;28;20054;-72
2022/11/24 00:46:14;;;;;;;9.68;4.75;;;5.90;99.90;;;;;;5170235;28;20048;-73
2022/11/24 00:48:53;;;;;;;7.22;4.38;;;5.90;99.90;;;;;;5173601;28;20030;-75
2022/11/24 00:51:26;;;;;;;6.88;4.55;;;5.90;99.90;;;;;;5156883;28;20349;-75
2022/11/24 00:54:01;;;;;;;10.20;4.50;;;5.80;99.90;;;;;;5139103;28;20042;-75
2022/11/24 00:56:32;;;;;;;;;;;5.70;99.90;;;;;;5156227;28;20288;-76
2022/11/24 00:59:06;;;;;;;7.90;5.28;;;5.70;99.90;;;;;;5155729;28;19916;-73
2022/11/24 01:01:38;;;;;;;7.07;4.95;;;5.70;99.90;;;;;;5151918;28;20052;-75
2022/11/24 01:04:11;;;;;;;8.07;5.07;;;5.60;99.90;;;;;;5154130;28;20046;-72
2022/11/24 01:06:43;;;;;;;7.10;4.90;;;5.60;99.90;;;;;;5136430;28;20066;-73
2022/11/24 01:09:14;;;;;;;7.45;5.03;;;5.60;99.90;;;;;;5152729;28;20034;-73
2022/11/24 01:12:00;;;;;;;9.63;5.05;;;5.50;99.90;;;;;;5133105;28;20207;-74
2022/11/24 01:14:31;;;;;;;11.10;5.80;;;5.50;99.90;;;;;;5154226;28;20044;-73
2022/11/24 01:17:05;;;;;;;7.57;5.20;;;5.50;99.90;;;;;;5166284;28;20052;-73
2022/11/24 01:19:39;;;;;;;10.43;5.32;;;5.50;99.90;;;;;;5175403;28;20046;-73
2022/11/24 01:22:15;;;;;;;8.10;4.97;;;5.50;99.90;;;;;;5154522;28;20044;-73
2022/11/24 01:24:47;;;;;;;9.93;5.00;;;5.50;99.90;;;;;;5154806;28;20558;-73
2022/11/24 01:27:20;;;;;;;8.25;5.47;;;5.50;99.90;;;;;;5150774;28;20027;-74
2022/11/24 01:29:51;;;;;;;10.52;5.72;;;5.50;99.90;;;;;;5144464;28;20542;-76
2022/11/24 01:32:23;;;;;;;8.20;5.07;;;5.40;99.90;;;;;;5169641;28;20042;-73
2022/11/24 01:34:56;;;;;;;9.95;5.97;;;5.50;99.90;;;;;;5121276;28;20042;-74
2022/11/24 01:37:30;;;;;;;10.10;5.28;;;5.40;99.90;;;;;;5172081;28;20038;-74
2022/11/24 01:40:01;;;;;;;7.97;5.60;;;5.40;99.90;;;;;;5172352;28;20028;-73
2022/11/24 01:42:53;;;;;;;8.27;5.55;;;5.40;99.90;;;;;;5172058;28;20034;-72
2022/11/24 01:45:40;;;;;;;12.10;6.22;;;5.40;99.90;;;;;;5154802;28;20041;-73
2022/11/24 01:48:27;;;;;;;8.38;5.50;;;5.40;99.90;;;;;;5170413;28;20036;-75
2022/11/24 01:51:12;;;;;;;15.32;6.20;;;5.40;99.90;;;;;;5171288;28;20034;-72
2022/11/24 01:53:51;;;;;;;11.40;6.32;;;5.40;99.90;;;;;;5171976;28;20032;-72
2022/11/24 01:56:25;;;;;;;12.30;6.72;;;5.30;99.90;;;;;;5154309;28;20524;-74
2022/11/24 01:59:06;;;;;;;10.70;6.47;;;5.40;99.90;;;;;;5171978;28;20284;-73
2022/11/24 02:01:37;;;;;;;12.18;6.93;;;5.30;99.90;;;;;;5168278;28;20200;-74
2022/11/24 02:04:28;;;;;;;9.23;6.18;;;5.30;99.90;;;;;;5170667;28;20045;-75
2022/11/24 02:07:05;;;;;;;11.27;6.40;;;5.30;99.90;;;;;;5144866;28;20200;-74
2022/11/24 02:09:53;;;;;;;11.60;6.15;;;5.30;99.90;;;;;;5171879;28;20018;-74
2022/11/24 02:12:26;;;;;;;12.73;7.05;;;5.30;99.90;;;;;;5172134;28;20026;-74
2022/11/24 02:14:58;;;;;;;9.80;6.82;;;5.30;99.90;;;;;;5171944;28;20068;-75
2022/11/24 02:17:31;;;;;;;13.73;7.55;;;5.40;99.90;;;;;;5154376;28;20048;-74
2022/11/24 02:20:10;;;;;;;13.48;7.20;;;5.40;99.90;;;;;;5172295;28;20136;-76
2022/11/24 02:22:50;;;;;;;14.30;7.20;;;5.40;99.90;;;;;;5171888;28;20040;-74
2022/11/24 02:25:27;;;;;;;10.98;6.72;;;5.40;99.90;;;;;;5152959;28;20211;-74
2022/11/24 02:28:01;;;;;;;13.15;7.75;;;5.40;99.90;;;;;;5153413;28;20046;-75
2022/11/24 02:30:34;;;;;;;13.57;8.55;;;5.40;99.90;;;;;;5153578;28;20030;-75
2022/11/24 02:33:06;;;;;;;12.65;6.68;;;5.50;99.90;;;;;;5171177;28;20246;-74
2022/11/24 02:35:41;;;;;;;12.00;6.97;;;5.40;99.90;;;;;;5171492;28;20138;-75
2022/11/24 02:38:13;;;;;;;10.18;6.28;;;5.50;99.90;;;;;;5171860;28;20303;-75
2022/11/24 02:40:48;;;;;;;13.63;7.63;;;5.50;99.90;;;;;;5153695;28;20033;-74
2022/11/24 02:43:22;;;;;;;12.40;7.97;;;5.50;99.90;;;;;;5169294;28;20036;-74
2022/11/24 02:45:56;;;;;;;11.75;7.07;;;5.50;99.90;;;;;;5170903;28;20042;-74
2022/11/24 02:48:29;;;;;;;14.18;6.53;;;5.50;99.90;;;;;;5154170;28;20052;-73
2022/11/24 02:51:00;;;;;;;11.63;7.40;;;5.50;99.90;;;;;;5134705;28;20032;-74
2022/11/24 02:53:35;;;;;;;13.73;6.80;;;5.60;99.90;;;;;;5170543;28;20507;-73
2022/11/24 02:56:06;;;;;;;11.13;7.00;;;5.60;99.90;;;;;;5171167;28;20038;-74
2022/11/24 02:58:37;;;;;;;10.30;6.72;;;5.60;99.90;;;;;;5170385;28;20227;-75
2022/11/24 03:01:09;;;;;;;10.50;6.13;;;5.60;99.90;;;;;;5133750;28;20043;-74
2022/11/24 03:03:44;;;;;;;10.40;6.10;;;5.60;99.90;;;;;;5164288;28;20033;-74
2022/11/24 03:06:16;;;;;;;9.77;5.50;;;5.60;99.90;;;;;;5160264;28;20235;-74
2022/11/24 03:08:50;;;;;;;10.55;6.03;;;5.60;99.90;;;;;;5171524;28;20030;-74
2022/11/24 03:11:21;;;;;;;9.30;6.10;;;5.60;99.90;;;;;;5154930;28;20022;-74
2022/11/24 03:13:53;;;;;;;7.50;4.95;;;5.60;99.90;;;;;;5164743;28;20045;-74
2022/11/24 03:16:29;;;;;;;9.32;4.57;;;5.50;99.90;;;;;;5171233;28;20030;-74
2022/11/24 03:19:00;;;;;;;9.88;5.13;;;5.60;99.90;;;;;;5154203;28;20019;-77
2022/11/24 03:21:35;;;;;;;8.88;4.80;;;5.50;99.90;;;;;;5154698;28;20022;-73
2022/11/24 03:24:09;;;;;;;9.60;5.20;;;5.50;99.90;;;;;;5169132;28;20034;-74
2022/11/24 03:26:41;;;;;;;8.15;5.20;;;5.50;99.90;;;;;;5153919;28;20235;-73
2022/11/24 03:29:14;;;;;;;6.78;4.85;;;5.40;99.90;;;;;;5153770;28;20034;-74
2022/11/24 03:31:48;;;;;;;7.45;4.97;;;5.40;99.90;;;;;;5171180;28;20036;-74
2022/11/24 03:34:22;;;;;;;9.13;5.43;;;5.40;99.90;;;;;;5170366;28;20048;-74
2022/11/24 03:37:01;;;;;;;5.95;4.35;;;5.30;99.90;;;;;;5170629;28;20050;-74
2022/11/24 03:39:33;;;;;;;5.80;4.18;;;5.30;99.90;;;;;;5170641;28;20328;-74
2022/11/24 03:42:05;;;;;;;6.63;4.13;;;5.20;99.90;;;;;;5153935;28;20030;-74
2022/11/24 03:44:38;;;;;;;6.10;4.35;;;5.20;99.90;;;;;;5171281;28;20027;-73
2022/11/24 03:47:12;;;;;;;7.05;4.57;;;5.20;99.90;;;;;;5152574;28;20436;-73
2022/11/24 03:49:44;;;;;;;7.65;4.88;;;5.10;99.90;;;;;;5170847;28;20022;-73
2022/11/24 03:52:17;;;;;;;6.55;4.40;;;5.10;99.90;;;;;;5153015;28;20034;-75
2022/11/24 03:54:51;;;;;;;7.50;4.93;;;5.10;99.90;;;;;;5164631;28;20040;-73
2022/11/24 03:57:26;;;;;;;11.13;4.93;;;5.10;99.90;;;;;;5172013;28;20034;-72
2022/11/24 03:59:59;;;;;;;7.40;4.38;;;5.10;99.90;;;;;;5156271;28;20075;-74
2022/11/24 04:02:36;;;;;;;4.68;3.70;;;5.00;99.90;;;;;;5156819;28;20050;-74
2022/11/24 04:05:13;;;;;;;10.77;5.20;;;5.10;99.90;;;;;;5146208;28;20070;-72
2022/11/24 04:07:44;;;;;;;7.63;5.28;;;5.10;99.90;;;;;;5141665;28;20030;-73
2022/11/24 04:10:20;;;;;;;9.73;5.30;;;5.10;99.90;;;;;;5155325;28;20038;-75
2022/11/24 04:12:55;;;;;;;8.40;4.63;;;5.10;99.90;;;;;;5167164;28;20102;-74
2022/11/24 04:15:26;;;;;;;8.30;4.65;;;5.10;99.90;;;;;;5172282;28;20332;-72
2022/11/24 04:17:58;;;;;;;5.95;3.92;;;5.10;99.90;;;;;;5156404;28;20048;-73
2022/11/24 04:20:29;;;;;;;6.45;4.30;;;5.10;99.90;;;;;;5156629;28;20050;-73
2022/11/24 04:23:06;;;;;;;5.97;3.65;;;5.10;99.90;;;;;;5156731;28;20110;-73
2022/11/24 04:25:38;;;;;;;11.38;5.40;;;5.10;99.90;;;;;;5155732;28;20215;-74
2022/11/24 04:28:11;;;;;;;6.65;4.32;;;5.10;99.90;;;;;;5173892;28;20030;-72
2022/11/24 04:30:43;;;;;;;6.80;4.97;;;5.20;99.90;;;;;;5169343;28;20060;-72
2022/11/24 04:33:14;;;;;;;5.68;4.10;;;5.20;99.90;;;;;;5173088;28;20026;-73
2022/11/24 04:35:53;;;;;;;6.38;4.43;;;5.10;99.90;;;;;;5173461;28;20018;-74
2022/11/24 04:38:27;;;;;;;5.80;4.32;;;5.10;99.90;;;;;;5155910;28;20038;-74
2022/11/24 04:41:05;;;;;;;5.55;3.83;;;5.10;99.90;;;;;;5173513;28;20191;-74
2022/11/24 04:43:36;;;;;;;6.78;4.10;;;5.10;99.90;;;;;;5173666;28;20027;-74
2022/11/24 04:46:18;;;;;;;8.55;4.15;;;5.10;99.90;;;;;;5139514;28;20461;-74
2022/11/24 04:48:52;;;;;;;5.78;4.35;;;5.10;99.90;;;;;;5156797;28;20139;-75
2022/11/24 04:51:23;;;;;;;6.25;3.55;;;5.10;99.90;;;;;;5156264;28;20040;-74
2022/11/24 04:53:54;;;;;;;5.10;3.33;;;5.00;99.90;;;;;;5162347;28;20208;-73
2022/11/24 04:56:30;;;;;;;6.72;3.47;;;5.00;99.90;;;;;;5165193;28;20026;-73
2022/11/24 04:59:05;;;;;;;7.38;3.88;;;5.00;99.90;;;;;;5172793;28;20038;-74
2022/11/24 05:01:37;;;;;;;4.53;3.70;;;4.90;99.90;;;;;;5147835;28;20038;-73
2022/11/24 05:04:14;;;;;;;4.45;3.40;;;5.00;99.90;;;;;;5169421;28;20044;-72
2022/11/24 05:06:45;;;;;;;5.55;3.33;;;5.00;99.90;;;;;;5145234;28;20054;-72
2022/11/24 05:09:18;;;;;;;5.90;3.30;;;5.00;99.90;;;;;;5172903;28;20034;-75
2022/11/24 05:11:54;;;;;;;4.80;3.58;;;4.90;99.90;;;;;;5172109;28;20052;-75
2022/11/24 05:14:27;;;;;;;4.47;3.28;;;5.00;99.90;;;;;;5154997;28;20040;-73
2022/11/24 05:17:00;;;;;;;5.07;3.38;;;4.90;99.90;;;;;;5154897;28;20046;-74
2022/11/24 05:19:32;;;;;;;4.47;3.10;;;4.90;99.90;;;;;;5171963;28;20034;-74
2022/11/24 05:22:05;;;;;;;4.55;2.95;;;5.00;99.90;;;;;;5172927;28;20292;-74
2022/11/24 05:24:41;;;;;;;4.47;2.72;;;4.90;99.90;;;;;;5171993;28;20292;-76
2022/11/24 05:27:14;;;;;;;3.20;2.47;;;4.90;99.90;;;;;;5170405;28;20048;-74
2022/11/24 05:29:50;;;;;;;2.35;2.03;;;4.90;99.90;;;;;;5172437;28;20036;-74
2022/11/24 05:32:25;;;;;;;2.45;2.25;;;5.00;99.90;;;;;;5163003;28;20196;-74
2022/11/24 05:34:57;;;;;;;3.42;2.38;;;5.00;99.90;;;;;;5165386;28;20026;-74
2022/11/24 05:37:28;;;;;;;3.80;2.40;;;5.10;99.90;;;;;;5154378;28;20026;-73
2022/11/24 05:40:11;;;;;;;3.05;2.47;;;5.10;99.90;;;;;;5171364;28;20026;-73
2022/11/24 05:42:42;;;;;;;4.80;2.47;;;5.10;99.90;;;;;;5177738;28;20090;-74
2022/11/24 05:45:20;;;;;;;3.20;2.40;;;5.10;99.90;;;;;;5170777;28;20535;-75
2022/11/24 05:47:54;;;;;;;3.03;2.53;;;5.20;99.90;;;;;;5171118;28;20323;-75
2022/11/24 05:50:28;;;;;;;3.40;2.45;;;5.20;99.90;;;;;;5155570;28;20045;-74
2022/11/24 05:53:10;;;;;;;2.70;2.05;;;5.30;99.90;;;;;;5151664;28;20031;-74
2022/11/24 05:55:42;;;;;;;2.13;1.63;;;5.30;99.90;;;;;;5170999;28;20105;-74
2022/11/24 05:58:13;;;;;;;105.53;49.13;;;5.40;99.90;;;;;;5171294;28;20038;-77
2022/11/24 06:00:46;;;;;;;16.73;12.60;;;5.40;99.90;;;;;;5167963;28;20022;-74
2022/11/24 06:03:17;;;;;;;12.80;10.80;;;5.40;99.90;;;;;;5171702;28;20060;-74
2022/11/24 06:05:53;;;;;;;160.40;104.70;;;5.30;99.90;;;;;;5160950;28;20290;-73
2022/11/24 06:08:28;;;;;;;11.10;8.05;;;5.40;99.90;;;;;;5153790;28;20042;-72
2022/11/24 06:11:19;;;;;;;5.43;4.07;;;5.40;99.90;;;;;;5152204;28;20026;-73
2022/11/24 06:13:54;;;;;;;14.63;10.38;;;5.50;99.90;;;;;;5172039;28;20265;-73
2022/11/24 06:16:28;;;;;;;17.45;14.43;;;5.50;99.90;;;;;;5154174;28;20046;-74
2022/11/24 06:19:04;;;;;;;7.10;5.68;;;5.50;99.90;;;;;;5164578;28;20081;-74
2022/11/24 06:21:35;;;;;;;2.45;2.13;;;5.50;99.90;;;;;;5170929;28;20026;-73
2022/11/24 06:24:09;;;;;;;1.45;1.35;;;5.50;99.90;;;;;;5169980;28;20044;-74
2022/11/24 06:26:43;;;;;;;11.95;9.75;;;5.50;99.90;;;;;;5171475;28;20030;-74
2022/11/24 06:29:17;;;;;;;1.50;1.40;;;5.50;99.90;;;;;;5171336;28;20033;-74
2022/11/24 06:31:48;;;;;;;1.40;1.20;;;5.50;99.90;;;;;;5171706;28;20032;-76
2022/11/24 06:34:22;;;;;;;1.67;1.55;;;5.60;99.90;;;;;;5171550;28;20022;-74
2022/11/24 06:36:56;;;;;;;1.40;1.20;;;5.60;99.90;;;;;;5171657;28;20036;-73
2022/11/24 06:39:33;;;;;;;2.55;2.35;;;5.70;99.90;;;;;;5170143;28;20061;-73
2022/11/24 06:42:06;;;;;;;1.77;1.67;;;5.70;99.90;;;;;;5138266;28;20050;-74
2022/11/24 06:44:42;;;;;;;3.10;2.80;;;5.80;99.90;;;;;;5171494;28;20052;-74
2022/11/24 06:47:17;;;;;;;2.50;2.03;;;5.90;99.90;;;;;;5171430;28;20288;-73
2022/11/24 06:49:48;;;;;;;1.95;1.48;;;5.90;99.90;;;;;;5171058;28;20212;-73
2022/11/24 06:52:25;;;;;;;2.70;2.13;;;5.90;99.90;;;;;;5171665;28;20028;-73
2022/11/24 06:55:08;;;;;;;1.50;1.40;;;6.00;99.90;;;;;;5148290;28;20042;-73
2022/11/24 06:57:42;;;;;;;3.05;2.03;;;6.00;99.90;;;;;;5153876;28;20038;-74
2022/11/24 07:00:16;;;;;;;1.50;1.40;;;6.10;99.90;;;;;;5149095;28;20034;-74
2022/11/24 07:02:49;;;;;;;2.00;1.70;;;6.10;99.90;;;;;;5152901;28;20064;-75
2022/11/24 07:05:21;;;;;;;2.27;1.60;;;6.10;99.90;;;;;;5158060;28;20042;-77
2022/11/24 07:07:55;;;;;;;7.30;4.82;;;6.20;99.90;;;;;;5153636;28;20031;-74
2022/11/24 07:10:28;;;;;;;26.48;13.20;;;6.20;99.90;;;;;;5170643;28;20223;-73
2022/11/24 07:13:03;;;;;;;108.05;55.45;;;6.20;99.90;;;;;;5149378;28;20042;-73
2022/11/24 07:15:37;;;;;;;194.13;104.00;;;6.30;99.90;;;;;;5167257;28;20030;-74
2022/11/24 07:18:09;;;;;;;23.08;16.10;;;6.40;99.90;;;;;;5168143;28;20030;-75
2022/11/24 07:20:43;;;;;;;19.98;14.70;;;6.50;99.90;;;;;;5150498;28;20381;-74
2022/11/24 07:23:14;;;;;;;5.95;5.20;;;6.40;99.90;;;;;;5170928;28;20300;-74
2022/11/24 07:25:45;;;;;;;3.65;3.13;;;6.50;99.90;;;;;;5153514;28;20299;-74
2022/11/24 07:28:16;;;;;;;3.30;1.75;;;6.50;99.90;;;;;;5153263;28;20030;-74
2022/11/24 07:30:48;;;;;;;3.40;3.08;;;6.50;99.90;;;;;;5172239;28;20312;-74
2022/11/24 07:33:24;;;;;;;3.13;2.83;;;6.50;99.90;;;;;;5174771;28;20029;-74
2022/11/24 07:35:58;;;;;;;3.03;2.47;;;6.50;99.90;;;;;;5146190;28;20057;-73
2022/11/24 07:38:33;;;;;;;17.08;15.23;;;6.50;99.90;;;;;;5168880;28;20034;-74
2022/11/24 07:41:09;;;;;;;4.43;4.00;;;6.50;99.90;;;;;;5174632;28;20080;-74
2022/11/24 07:43:42;;;;;;;4.03;3.58;;;6.60;99.90;;;;;;5171573;28;20030;-74
2022/11/24 07:46:15;;;;;;;5.85;5.28;;;6.60;99.90;;;;;;5162197;28;20023;-74
2022/11/24 07:48:47;;;;;;;4.60;4.10;;;6.50;99.90;;;;;;5120738;28;20042;-74
2022/11/24 07:51:21;;;;;;;2.75;1.95;;;6.50;99.90;;;;;;5121041;28;20224;-74
2022/11/24 07:53:54;;;;;;;2.28;1.90;;;6.40;99.90;;;;;;5161494;28;20049;-73
2022/11/24 07:56:28;;;;;;;2.85;2.42;;;6.30;99.90;;;;;;5173885;28;20038;-72
2022/11/24 07:59:00;;;;;;;1.58;1.48;;;6.30;99.90;;;;;;5174727;28;20049;-73
2022/11/24 08:01:31;;;;;;;2.47;1.55;;;6.20;99.90;;;;;;5173133;28;20489;-72
2022/11/24 08:04:04;;;;;;;3.25;2.42;;;6.20;99.90;;;;;;5174100;28;20026;-77
2022/11/24 08:06:41;;;;;;;6.00;5.00;;;6.10;99.90;;;;;;5162625;28;20054;-73
2022/11/24 08:09:14;;;;;;;4.50;2.63;;;6.10;99.90;;;;;;5168642;28;20068;-72
2022/11/24 08:11:51;;;;;;;4.17;3.77;;;6.10;99.90;;;;;;5147497;28;20050;-72
2022/11/24 08:14:27;;;;;;;2.80;1.67;;;6.00;99.90;;;;;;5173256;28;20031;-72
2022/11/24 08:17:01;;;;;;;1.70;1.55;;;6.00;99.90;;;;;;5174130;28;20042;-73
2022/11/24 08:19:33;;;;;;;8.88;2.17;;;6.00;99.90;;;;;;5155977;28;20044;-73
2022/11/24 08:22:12;;;;;;;3.67;2.05;;;5.90;99.90;;;;;;5173764;28;20040;-72
2022/11/24 08:24:46;;;;;;;2.55;2.05;;;6.00;99.90;;;;;;5155931;28;20034;-72
2022/11/24 08:27:21;;;;;;;3.17;2.30;;;5.90;99.90;;;;;;5172271;28;20038;-72
2022/11/24 08:29:52;;;;;;;4.15;2.20;;;5.90;99.90;;;;;;5155840;28;20027;-72
2022/11/24 08:32:26;;;;;;;5.53;4.15;;;5.90;99.90;;;;;;5173700;28;20041;-73
2022/11/24 08:34:57;;;;;;;4.05;3.40;;;5.90;99.90;;;;;;5156396;28;20251;-73
2022/11/24 08:37:38;;;;;;;5.88;2.50;;;5.90;99.90;;;;;;5152850;28;20065;-75
2022/11/24 08:40:21;;;;;;;3.00;2.05;;;5.90;99.90;;;;;;5137512;28;20045;-73
2022/11/24 08:43:01;;;;;;;2.58;2.03;;;5.90;99.90;;;;;;5169955;28;20030;-73
2022/11/24 08:45:36;;;;;;;5.30;2.10;;;5.90;99.90;;;;;;5156301;28;20038;-74
2022/11/24 08:48:08;;;;;;;2.88;1.90;;;5.90;99.90;;;;;;5172821;28;20038;-72
2022/11/24 08:50:39;;;;;;;2.72;2.00;;;5.90;99.90;;;;;;5172132;28;20038;-72
2022/11/24 08:53:10;;;;;;;3.30;2.20;;;5.90;99.90;;;;;;5173114;28;20037;-75
2022/11/24 08:55:44;;;;;;;2.67;2.10;;;5.90;99.90;;;;;;5155356;28;20030;-74
2022/11/24 08:58:18;;;;;;;7.70;5.85;;;6.00;99.90;;;;;;5155709;28;20044;-73
2022/11/24 09:00:49;;;;;;;5.43;4.70;;;6.00;99.90;;;;;;5153641;28;20038;-73
2022/11/24 09:03:22;;;;;;;4.63;4.03;;;6.00;99.90;;;;;;5162039;28;20260;-75
2022/11/24 09:05:54;;;;;;;6.70;3.72;;;6.10;99.90;;;;;;5161679;28;20042;-75
2022/11/24 09:08:25;;;;;;;6.68;3.38;;;6.10;99.90;;;;;;5155826;28;20297;-75
2022/11/24 09:11:12;;;;;;;5.90;3.08;;;6.10;99.90;;;;;;5156484;28;20026;-77
2022/11/24 09:13:45;;;;;;;6.05;3.00;;;6.20;99.90;;;;;;5155673;28;20030;-73
2022/11/24 09:16:22;;;;;;;7.32;4.57;;;6.20;99.90;;;;;;5155303;28;20036;-74
2022/11/24 09:19:08;;;;;;;6.03;3.78;;;6.30;99.90;;;;;;5172266;28;20034;-74
2022/11/24 09:21:39;;;;;;;17.75;12.13;;;6.30;99.90;;;;;;5171401;28;20028;-74
2022/11/24 09:24:15;;;;;;;11.93;6.15;;;6.30;99.90;;;;;;5169371;28;20030;-74
2022/11/24 09:26:46;;;;;;;20.23;12.32;;;6.40;99.90;;;;;;5152811;28;20023;-74
2022/11/24 09:29:22;;;;;;;10.50;6.15;;;6.40;99.90;;;;;;5172651;28;20052;-74
2022/11/24 09:31:58;;;;;;;13.65;7.03;;;6.40;99.90;;;;;;5170626;28;20032;-74
2022/11/24 09:34:32;;;;;;;11.43;6.78;;;6.50;99.90;;;;;;5172421;28;20414;-73
2022/11/24 09:37:09;;;;;;;24.88;16.73;;;6.60;99.90;;;;;;5171888;28;20049;-73
2022/11/24 09:39:40;;;;;;;8.00;5.80;;;6.50;99.90;;;;;;5172476;28;20038;-73
2022/11/24 09:42:16;;;;;;;12.18;8.05;;;6.60;99.90;;;;;;5171987;28;20368;-73
2022/11/24 09:45:25;;;;;;;8.73;4.57;;;6.50;99.90;;;;;;5154892;28;20038;-77
2022/11/24 09:48:20;;;;;;;7.15;4.85;;;6.50;99.90;;;;;;5151979;28;20030;-72
2022/11/24 09:50:52;;;;;;;;;;;6.50;99.90;;;;;;5153437;28;20285;-74
2022/11/24 09:53:39;;;;;;;9.30;5.68;;;6.50;99.90;;;;;;5152167;28;19916;-72
2022/11/24 09:56:28;;;;;;;14.40;9.25;;;6.50;99.90;;;;;;5169764;28;20038;-72
2022/11/24 09:59:26;;;;;;;8.85;5.63;;;6.50;99.90;;;;;;5154161;28;20064;-72
2022/11/24 10:01:59;;;;;;;10.68;6.72;;;6.50;99.90;;;;;;5135848;28;20052;-75
2022/11/24 10:04:41;;;;;;;9.13;5.38;;;6.50;99.90;;;;;;5127917;28;20072;-74
2022/11/24 10:07:31;;;;;;;8.73;5.55;;;6.60;99.90;;;;;;5150776;28;20031;-72
2022/11/24 10:10:17;;;;;;;8.10;4.95;;;6.70;99.90;;;;;;5152256;28;20026;-73
2022/11/24 10:13:10;;;;;;;10.93;5.53;;;6.80;99.90;;;;;;5170423;28;20034;-73
2022/11/24 10:16:04;;;;;;;11.75;7.22;;;6.90;99.90;;;;;;5171241;28;20018;-73
2022/11/24 10:18:52;;;;;;;8.98;5.05;;;6.90;99.90;;;;;;5166002;28;20054;-75
2022/11/24 10:21:32;;;;;;;10.95;5.38;;;7.00;99.90;;;;;;5170600;28;20045;-73
2022/11/24 10:24:36;;;;;;;6.28;4.88;;;7.00;99.90;;;;;;5166019;28;20030;-73
2022/11/24 10:27:28;;;;;;;8.25;5.65;;;7.10;99.90;;;;;;5144726;28;20046;-74
2022/11/24 10:30:04;;;;;;;7.80;5.07;;;7.10;99.90;;;;;;5142653;28;20046;-72
2022/11/24 10:32:44;;;;;;;6.63;4.40;;;7.10;99.90;;;;;;5170158;28;20034;-72
2022/11/24 10:35:23;;;;;;;8.38;5.63;;;7.20;99.90;;;;;;5169367;28;20041;-74
2022/11/24 10:38:13;;;;;;;9.75;4.38;;;7.30;99.90;;;;;;5161205;28;20485;-74
2022/11/24 10:40:56;;;;;;;9.27;4.03;;;7.30;99.90;;;;;;5161400;28;20034;-74
2022/11/24 10:43:33;;;;;;;11.30;3.65;;;7.30;99.90;;;;;;5170237;28;20061;-76
2022/11/24 10:46:18;;;;;;;6.95;3.35;;;7.30;99.90;;;;;;5170994;28;20292;-74
2022/11/24 10:48:51;;;;;;;;;;;7.30;99.90;;;;;;5172759;28;20030;-74
2022/11/24 10:51:51;;;;;;;4.05;2.78;;;7.30;99.90;;;;;;5170088;28;19913;-74
2022/11/24 10:54:25;;;;;;;5.30;3.40;;;7.30;99.90;;;;;;5154017;28;20038;-74
2022/11/24 10:56:59;;;;;;;5.57;3.83;;;7.30;99.90;;;;;;5170433;28;20034;-73
2022/11/24 10:59:39;;;;;;;99.55;61.53;;;7.30;99.90;;;;;;5170931;28;20045;-73
2022/11/24 11:02:40;;;;;;;85.70;53.65;;;7.40;99.90;;;;;;5170913;28;20030;-74
2022/11/24 11:05:43;;;;;;;37.25;30.67;;;7.40;99.90;;;;;;5128648;28;20054;-74
2022/11/24 11:08:18;;;;;;;12.50;8.23;;;7.40;99.90;;;;;;5172345;28;20034;-74
2022/11/24 11:11:10;;;;;;;6.38;4.60;;;7.40;99.90;;;;;;5157918;28;20032;-72
2022/11/24 11:14:11;;;;;;;7.15;4.18;;;7.40;99.90;;;;;;5174145;28;20029;-75
2022/11/24 11:16:57;;;;;;;10.45;7.47;;;7.40;99.90;;;;;;5174869;28;20034;-72
2022/11/24 11:19:40;;;;;;;7.60;4.72;;;7.40;99.90;;;;;;5174211;28;20324;-73
2022/11/24 11:22:11;;;;;;;21.38;12.07;;;7.40;99.90;;;;;;5157294;28;20038;-73
2022/11/24 11:24:45;;;;;;;11.77;10.45;;;7.60;99.90;;;;;;5174560;28;20212;-74
2022/11/24 11:27:28;;;;;;;9.35;6.28;;;7.60;99.90;;;;;;5157311;28;20026;-75
2022/11/24 11:30:32;;;;;;;19.98;16.05;;;7.60;99.90;;;;;;5174819;28;20482;-73
2022/11/24 11:33:21;;;;;;;29.23;25.88;;;7.60;99.90;;;;;;5146274;28;20042;-73
2022/11/24 11:35:54;;;;;;;18.83;14.55;;;7.60;99.90;;;;;;5156859;28;20034;-73
2022/11/24 11:38:31;;;;;;;22.55;15.57;;;7.60;99.90;;;;;;5174383;28;20022;-73
2022/11/24 11:41:06;;;;;;;8.50;4.35;;;7.70;99.90;;;;;;5157230;28;20041;-75
2022/11/24 11:43:40;;;;;;;9.48;5.40;;;7.80;99.90;;;;;;5156447;28;20374;-74
2022/11/24 11:46:19;;;;;;;;;;;8.10;99.90;;;;;;5175012;28;20342;-74
2022/11/24 11:48:55;;;;;;;43.63;16.02;;;8.20;99.90;;;;;;5173301;28;19909;-74
2022/11/24 11:51:44;;;;;;;90.07;33.75;;;8.20;99.90;;;;;;5155937;28;20034;-74
2022/11/24 11:54:49;;;;;;;70.20;30.88;;;8.50;99.90;;;;;;5156710;28;20052;-74
2022/11/24 11:57:31;;;;;;;123.07;35.55;;;8.50;99.90;;;;;;5155706;28;20030;-74
2022/11/24 12:00:19;;;;;;;115.97;24.20;;;8.50;99.90;;;;;;5174316;28;20076;-75
2022/11/24 12:03:28;;;;;;;94.68;20.95;;;8.40;99.90;;;;;;5155442;28;20052;-72
2022/11/24 12:05:59;;;;;;;6.97;3.95;;;8.40;99.90;;;;;;5100881;29;20063;-73
2022/11/24 12:08:57;;;;;;;5.72;4.03;;;8.30;99.90;;;;;;5109666;29;20257;-72
2022/11/24 12:11:39;;;;;;;5.03;3.38;;;8.30;99.90;;;;;;5133460;28;20042;-73
2022/11/24 12:14:39;;;;;;;7.97;4.57;;;8.70;99.90;;;;;;5171646;28;20347;-73
2022/11/24 12:17:31;;;;;;;10.52;4.97;;;8.80;99.90;;;;;;5158932;28;20048;-74
2022/11/24 12:20:17;;;;;;;10.13;6.68;;;8.80;99.90;;;;;;5162719;28;20060;-75
2022/11/24 12:23:10;;;;;;;6.60;4.15;;;9.00;99.90;;;;;;5172837;28;20024;-74
2022/11/24 12:26:10;;;;;;;4.90;3.33;;;9.30;99.90;;;;;;5153412;28;20030;-73
2022/11/24 12:29:09;;;;;;;5.30;3.33;;;9.60;99.90;;;;;;5160586;28;20022;-73
2022/11/24 12:31:52;;;;;;;7.75;2.67;;;9.70;99.90;;;;;;5154791;28;20030;-74
2022/11/24 12:34:44;;;;;;;7.15;3.63;;;9.80;99.90;;;;;;5173070;28;20025;-74
2022/11/24 12:37:21;;;;;;;302.27;165.20;;;9.60;99.90;;;;;;5172134;28;20032;-74
2022/11/24 12:40:21;;;;;;;4.38;3.97;;;9.80;99.90;;;;;;5173537;28;20049;-74
2022/11/24 12:43:07;;;;;;;20.23;13.48;;;9.80;99.90;;;;;;5173280;28;20030;-76
2022/11/24 12:45:59;;;;;;;23.98;10.55;;;10.00;99.90;;;;;;5167638;28;20037;-73
2022/11/24 12:48:43;;;;;;;26.05;13.30;;;9.90;99.90;;;;;;5168592;28;20038;-75
2022/11/24 12:51:24;;;;;;;7.43;4.95;;;10.10;99.90;;;;;;5155623;28;20033;-74
2022/11/24 12:53:57;;;;;;;175.38;114.93;;;9.90;99.90;;;;;;5164532;28;20026;-74
2022/11/24 12:56:39;;;;;;;18.83;12.18;;;9.90;99.90;;;;;;5138540;28;20045;-74
2022/11/24 12:59:23;;;;;;;204.07;127.25;;;9.90;99.90;;;;;;5161189;28;20034;-75
2022/11/24 13:02:24;;;;;;;168.90;101.30;;;9.80;99.90;;;;;;5172702;28;20038;-75
2022/11/24 13:05:30;;;;;;;7.13;3.50;;;9.60;99.90;;;;;;5125113;28;20077;-75
2022/11/24 13:08:04;;;;;;;22.80;14.15;;;9.50;99.90;;;;;;5149075;28;20038;-74
2022/11/24 13:10:37;;;;;;;121.70;83.40;;;9.50;99.90;;;;;;5153795;28;20038;-73
2022/11/24 13:13:16;;;;;;;7.00;3.85;;;9.60;99.90;;;;;;5172643;28;20044;-75
2022/11/24 13:15:53;;;;;;;7.35;5.28;;;9.50;99.90;;;;;;5170445;28;20084;-73
2022/11/24 13:18:52;;;;;;;41.88;26.17;;;9.50;99.90;;;;;;5151683;28;20030;-73
2022/11/24 13:21:32;;;;;;;18.88;10.55;;;9.40;99.90;;;;;;5176217;28;20032;-73
2022/11/24 13:24:29;;;;;;;24.10;11.20;;;9.50;99.90;;;;;;5171626;28;20014;-76
2022/11/24 13:27:17;;;;;;;46.85;21.15;;;9.50;99.90;;;;;;5116897;29;20053;-73
2022/11/24 13:29:50;;;;;;;85.20;41.13;;;9.40;99.90;;;;;;5093110;29;20043;-74
2022/11/24 13:32:21;;;;;;;29.38;15.13;;;9.50;99.90;;;;;;5113679;29;20378;-74
2022/11/24 13:34:55;;;;;;;6.47;2.80;;;9.50;99.90;;;;;;5113115;29;20235;-75
2022/11/24 13:37:28;;;;;;;9.00;6.53;;;9.40;99.90;;;;;;5130578;29;20039;-75
2022/11/24 13:40:02;;;;;;;7.78;4.90;;;9.40;99.90;;;;;;5130456;29;20420;-73
2022/11/24 13:42:53;;;;;;;;;;;9.30;99.90;;;;;;5130929;28;20416;-74
2022/11/24 13:45:53;;;;;;;6.03;2.75;;;9.40;99.90;;;;;;5113156;28;20197;-73